sensor_id;sensor_type;location;lat;lon;timestamp;temperature;humidity
78536;SHT31;67829;51.968;5.684;2023-11-19T00:01:24;15.0;81.3
78536;SHT31;67829;51.968;5.684;2023-11-19T00:03:52;15.0;81.0
78536;SHT31;67829;51.968;5.684;2023-11-19T00:06:21;15.0;80.8
78536;SHT31;67829;51.968;5.684;2023-11-19T00:08:49;15.0;80.8
78536;SHT31;67829;51.968;5.684;2023-11-19T00:11:18;15.0;80.7
78536;SHT31;67829;51.968;5.684;2023-11-19T00:13:47;15.1;80.7
78536;SHT31;67829;51.968;5.684;2023-11-19T00:16:15;15.1;80.6
78536;SHT31;67829;51.968;5.684;2023-11-19T00:18:46;15.1;80.5
78536;SHT31;67829;51.968;5.684;2023-11-19T00:21:16;15.1;80.4
78536;SHT31;67829;51.968;5.684;2023-11-19T00:23:44;15.1;80.3
78536;SHT31;67829;51.968;5.684;2023-11-19T00:26:13;15.2;80.2
78536;SHT31;67829;51.968;5.684;2023-11-19T00:28:42;15.2;80.1
78536;SHT31;67829;51.968;5.684;2023-11-19T00:31:10;15.2;80.0
78536;SHT31;67829;51.968;5.684;2023-11-19T00:33:39;15.2;79.8
78536;SHT31;67829;51.968;5.684;2023-11-19T00:36:08;15.2;79.6
78536;SHT31;67829;51.968;5.684;2023-11-19T00:38:36;15.2;79.6
78536;SHT31;67829;51.968;5.684;2023-11-19T00:41:05;15.2;79.5
78536;SHT31;67829;51.968;5.684;2023-11-19T00:43:34;15.3;79.4
78536;SHT31;67829;51.968;5.684;2023-11-19T00:46:03;15.3;79.3
78536;SHT31;67829;51.968;5.684;2023-11-19T00:48:33;15.3;79.3
78536;SHT31;67829;51.968;5.684;2023-11-19T00:51:02;15.3;79.2
78536;SHT31;67829;51.968;5.684;2023-11-19T00:53:31;15.3;79.1
78536;SHT31;67829;51.968;5.684;2023-11-19T00:56:00;15.3;78.9
78536;SHT31;67829;51.968;5.684;2023-11-19T00:58:28;15.3;78.7
78536;SHT31;67829;51.968;5.684;2023-11-19T01:01:00;15.3;78.7
78536;SHT31;67829;51.968;5.684;2023-11-19T01:03:28;15.3;78.6
78536;SHT31;67829;51.968;5.684;2023-11-19T01:05:59;15.3;78.6
78536;SHT31;67829;51.968;5.684;2023-11-19T01:08:28;15.3;78.6
78536;SHT31;67829;51.968;5.684;2023-11-19T01:10:57;15.4;78.4
78536;SHT31;67829;51.968;5.684;2023-11-19T01:13:26;15.4;78.4
78536;SHT31;67829;51.968;5.684;2023-11-19T01:15:55;15.4;78.2
78536;SHT31;67829;51.968;5.684;2023-11-19T01:18:24;15.4;78.2
78536;SHT31;67829;51.968;5.684;2023-11-19T01:20:53;15.4;78.0
78536;SHT31;67829;51.968;5.684;2023-11-19T01:23:23;15.4;78.0
78536;SHT31;67829;51.968;5.684;2023-11-19T01:25:51;15.4;77.9
78536;SHT31;67829;51.968;5.684;2023-11-19T01:28:20;15.4;77.8
78536;SHT31;67829;51.968;5.684;2023-11-19T01:30:50;15.4;77.7
78536;SHT31;67829;51.968;5.684;2023-11-19T01:33:19;15.4;77.5
78536;SHT31;67829;51.968;5.684;2023-11-19T01:35:48;15.4;77.5
78536;SHT31;67829;51.968;5.684;2023-11-19T01:38:16;15.4;77.5
78536;SHT31;67829;51.968;5.684;2023-11-19T01:40:45;15.4;77.3
78536;SHT31;67829;51.968;5.684;2023-11-19T01:43:33;15.4;77.3
78536;SHT31;67829;51.968;5.684;2023-11-19T01:46:03;15.4;77.1
78536;SHT31;67829;51.968;5.684;2023-11-19T01:48:34;15.4;77.2
78536;SHT31;67829;51.968;5.684;2023-11-19T01:51:04;15.4;77.2
78536;SHT31;67829;51.968;5.684;2023-11-19T01:53:34;15.4;77.2
78536;SHT31;67829;51.968;5.684;2023-11-19T01:56:04;15.4;77.1
78536;SHT31;67829;51.968;5.684;2023-11-19T01:58:35;15.4;76.9
78536;SHT31;67829;51.968;5.684;2023-11-19T02:01:05;15.4;77.0
78536;SHT31;67829;51.968;5.684;2023-11-19T02:03:36;15.4;76.7
78536;SHT31;67829;51.968;5.684;2023-11-19T02:06:06;15.4;76.3
78536;SHT31;67829;51.968;5.684;2023-11-19T02:08:36;15.4;76.4
78536;SHT31;67829;51.968;5.684;2023-11-19T02:11:05;15.4;76.0
78536;SHT31;67829;51.968;5.684;2023-11-19T02:13:37;15.4;76.1
78536;SHT31;67829;51.968;5.684;2023-11-19T02:16:08;15.4;76.0
78536;SHT31;67829;51.968;5.684;2023-11-19T02:18:37;15.4;75.9
78536;SHT31;67829;51.968;5.684;2023-11-19T02:21:06;15.4;75.9
78536;SHT31;67829;51.968;5.684;2023-11-19T02:23:37;15.4;75.9
78536;SHT31;67829;51.968;5.684;2023-11-19T02:26:16;15.3;75.8
78536;SHT31;67829;51.968;5.684;2023-11-19T02:28:48;15.3;75.7
78536;SHT31;67829;51.968;5.684;2023-11-19T02:31:16;15.3;75.5
78536;SHT31;67829;51.968;5.684;2023-11-19T02:33:46;15.3;75.5
78536;SHT31;67829;51.968;5.684;2023-11-19T02:36:16;15.3;75.0
78536;SHT31;67829;51.968;5.684;2023-11-19T02:38:45;15.3;75.2
78536;SHT31;67829;51.968;5.684;2023-11-19T02:41:15;15.3;75.1
78536;SHT31;67829;51.968;5.684;2023-11-19T02:43:46;15.2;75.0
78536;SHT31;67829;51.968;5.684;2023-11-19T02:46:15;15.2;75.0
78536;SHT31;67829;51.968;5.684;2023-11-19T02:48:45;15.2;74.8
78536;SHT31;67829;51.968;5.684;2023-11-19T02:51:16;15.2;74.8
78536;SHT31;67829;51.968;5.684;2023-11-19T02:53:47;15.1;74.8
78536;SHT31;67829;51.968;5.684;2023-11-19T02:56:18;15.1;74.5
78536;SHT31;67829;51.968;5.684;2023-11-19T02:58:52;15.1;74.3
78536;SHT31;67829;51.968;5.684;2023-11-19T03:01:25;15.1;74.3
78536;SHT31;67829;51.968;5.684;2023-11-19T03:03:57;15.0;74.2
78536;SHT31;67829;51.968;5.684;2023-11-19T03:06:27;15.0;74.1
78536;SHT31;67829;51.968;5.684;2023-11-19T03:08:56;15.0;74.3
78536;SHT31;67829;51.968;5.684;2023-11-19T03:11:25;15.0;74.4
78536;SHT31;67829;51.968;5.684;2023-11-19T03:13:53;14.9;74.3
78536;SHT31;67829;51.968;5.684;2023-11-19T03:16:22;14.9;74.2
78536;SHT31;67829;51.968;5.684;2023-11-19T03:18:51;14.9;74.2
78536;SHT31;67829;51.968;5.684;2023-11-19T03:21:19;14.9;74.2
78536;SHT31;67829;51.968;5.684;2023-11-19T03:23:47;14.9;74.2
78536;SHT31;67829;51.968;5.684;2023-11-19T03:26:16;14.8;74.1
78536;SHT31;67829;51.968;5.684;2023-11-19T03:28:44;14.8;73.9
78536;SHT31;67829;51.968;5.684;2023-11-19T03:31:13;14.8;73.9
78536;SHT31;67829;51.968;5.684;2023-11-19T03:33:41;14.7;73.9
78536;SHT31;67829;51.968;5.684;2023-11-19T03:36:10;14.7;73.9
78536;SHT31;67829;51.968;5.684;2023-11-19T03:38:39;14.7;73.9
78536;SHT31;67829;51.968;5.684;2023-11-19T03:41:12;14.6;73.9
78536;SHT31;67829;51.968;5.684;2023-11-19T03:43:42;14.6;74.0
78536;SHT31;67829;51.968;5.684;2023-11-19T03:46:20;14.6;73.9
78536;SHT31;67829;51.968;5.684;2023-11-19T03:48:50;14.5;73.9
78536;SHT31;67829;51.968;5.684;2023-11-19T03:51:18;14.5;74.0
78536;SHT31;67829;51.968;5.684;2023-11-19T03:53:47;14.4;73.9
78536;SHT31;67829;51.968;5.684;2023-11-19T03:56:17;14.4;73.9
78536;SHT31;67829;51.968;5.684;2023-11-19T03:58:47;14.4;74.0
78536;SHT31;67829;51.968;5.684;2023-11-19T04:01:15;14.3;74.1
78536;SHT31;67829;51.968;5.684;2023-11-19T04:03:44;14.3;74.0
78536;SHT31;67829;51.968;5.684;2023-11-19T04:06:14;14.3;74.1
78536;SHT31;67829;51.968;5.684;2023-11-19T04:08:43;14.2;74.1
78536;SHT31;67829;51.968;5.684;2023-11-19T04:11:11;14.2;74.2
78536;SHT31;67829;51.968;5.684;2023-11-19T04:13:40;14.2;74.2
78536;SHT31;67829;51.968;5.684;2023-11-19T04:16:08;14.1;74.1
78536;SHT31;67829;51.968;5.684;2023-11-19T04:18:37;14.1;74.0
78536;SHT31;67829;51.968;5.684;2023-11-19T04:21:07;14.1;74.0
78536;SHT31;67829;51.968;5.684;2023-11-19T04:23:37;14.0;74.1
78536;SHT31;67829;51.968;5.684;2023-11-19T04:26:06;14.0;74.0
78536;SHT31;67829;51.968;5.684;2023-11-19T04:28:34;14.0;74.0
78536;SHT31;67829;51.968;5.684;2023-11-19T04:31:03;14.0;73.8
78536;SHT31;67829;51.968;5.684;2023-11-19T04:33:32;13.9;73.8
78536;SHT31;67829;51.968;5.684;2023-11-19T04:36:01;13.9;73.8
78536;SHT31;67829;51.968;5.684;2023-11-19T04:38:30;13.9;73.9
78536;SHT31;67829;51.968;5.684;2023-11-19T04:40:59;13.9;73.8
78536;SHT31;67829;51.968;5.684;2023-11-19T04:43:27;13.8;73.8
78536;SHT31;67829;51.968;5.684;2023-11-19T04:45:56;13.8;73.7
78536;SHT31;67829;51.968;5.684;2023-11-19T04:48:24;13.8;73.7
78536;SHT31;67829;51.968;5.684;2023-11-19T04:50:53;13.8;73.3
78536;SHT31;67829;51.968;5.684;2023-11-19T04:53:21;13.8;73.1
78536;SHT31;67829;51.968;5.684;2023-11-19T04:55:50;13.7;73.1
78536;SHT31;67829;51.968;5.684;2023-11-19T04:58:18;13.7;73.1
78536;SHT31;67829;51.968;5.684;2023-11-19T05:00:47;13.7;72.9
78536;SHT31;67829;51.968;5.684;2023-11-19T05:03:17;13.7;72.9
78536;SHT31;67829;51.968;5.684;2023-11-19T05:05:46;13.6;72.9
78536;SHT31;67829;51.968;5.684;2023-11-19T05:08:15;13.6;73.0
78536;SHT31;67829;51.968;5.684;2023-11-19T05:10:43;13.6;73.1
78536;SHT31;67829;51.968;5.684;2023-11-19T05:13:12;13.6;73.2
78536;SHT31;67829;51.968;5.684;2023-11-19T05:15:41;13.6;73.2
78536;SHT31;67829;51.968;5.684;2023-11-19T05:18:10;13.6;73.6
78536;SHT31;67829;51.968;5.684;2023-11-19T05:20:38;13.5;73.8
78536;SHT31;67829;51.968;5.684;2023-11-19T05:23:07;13.5;73.7
78536;SHT31;67829;51.968;5.684;2023-11-19T05:25:36;13.5;73.6
78536;SHT31;67829;51.968;5.684;2023-11-19T05:28:05;13.5;73.4
78536;SHT31;67829;51.968;5.684;2023-11-19T05:30:34;13.5;73.4
78536;SHT31;67829;51.968;5.684;2023-11-19T05:33:02;13.5;73.2
78536;SHT31;67829;51.968;5.684;2023-11-19T05:35:31;13.5;73.4
78536;SHT31;67829;51.968;5.684;2023-11-19T05:37:59;13.5;73.3
78536;SHT31;67829;51.968;5.684;2023-11-19T05:40:28;13.5;73.4
78536;SHT31;67829;51.968;5.684;2023-11-19T05:42:57;13.5;73.4
78536;SHT31;67829;51.968;5.684;2023-11-19T05:45:28;13.5;73.3
78536;SHT31;67829;51.968;5.684;2023-11-19T05:47:56;13.6;73.4
78536;SHT31;67829;51.968;5.684;2023-11-19T05:50:25;13.6;73.2
78536;SHT31;67829;51.968;5.684;2023-11-19T05:52:53;13.6;73.0
78536;SHT31;67829;51.968;5.684;2023-11-19T05:55:22;13.6;72.9
78536;SHT31;67829;51.968;5.684;2023-11-19T05:57:51;13.6;72.8
78536;SHT31;67829;51.968;5.684;2023-11-19T06:00:19;13.6;72.8
78536;SHT31;67829;51.968;5.684;2023-11-19T06:02:48;13.6;72.9
78536;SHT31;67829;51.968;5.684;2023-11-19T06:05:18;13.6;72.8
78536;SHT31;67829;51.968;5.684;2023-11-19T06:07:47;13.6;73.0
78536;SHT31;67829;51.968;5.684;2023-11-19T06:10:18;13.6;73.1
78536;SHT31;67829;51.968;5.684;2023-11-19T06:12:49;13.6;73.1
78536;SHT31;67829;51.968;5.684;2023-11-19T06:15:22;13.6;73.1
78536;SHT31;67829;51.968;5.684;2023-11-19T06:17:52;13.5;73.0
78536;SHT31;67829;51.968;5.684;2023-11-19T06:20:21;13.5;73.1
78536;SHT31;67829;51.968;5.684;2023-11-19T06:22:50;13.5;72.9
78536;SHT31;67829;51.968;5.684;2023-11-19T06:25:20;13.5;73.0
78536;SHT31;67829;51.968;5.684;2023-11-19T06:27:52;13.5;73.0
78536;SHT31;67829;51.968;5.684;2023-11-19T06:30:23;13.5;73.0
78536;SHT31;67829;51.968;5.684;2023-11-19T06:32:51;13.5;72.9
78536;SHT31;67829;51.968;5.684;2023-11-19T06:35:20;13.5;73.1
78536;SHT31;67829;51.968;5.684;2023-11-19T06:37:48;13.5;73.0
78536;SHT31;67829;51.968;5.684;2023-11-19T06:40:17;13.4;73.0
78536;SHT31;67829;51.968;5.684;2023-11-19T06:42:45;13.4;73.1
78536;SHT31;67829;51.968;5.684;2023-11-19T06:45:16;13.4;73.3
78536;SHT31;67829;51.968;5.684;2023-11-19T06:47:44;13.4;73.7
78536;SHT31;67829;51.968;5.684;2023-11-19T06:50:13;13.5;73.6
78536;SHT31;67829;51.968;5.684;2023-11-19T06:52:41;13.5;73.6
78536;SHT31;67829;51.968;5.684;2023-11-19T06:55:12;13.5;73.5
78536;SHT31;67829;51.968;5.684;2023-11-19T06:57:41;13.5;73.4
78536;SHT31;67829;51.968;5.684;2023-11-19T07:00:10;13.5;73.2
78536;SHT31;67829;51.968;5.684;2023-11-19T07:02:39;13.5;73.1
78536;SHT31;67829;51.968;5.684;2023-11-19T07:05:08;13.5;73.2
78536;SHT31;67829;51.968;5.684;2023-11-19T07:07:38;13.5;73.2
78536;SHT31;67829;51.968;5.684;2023-11-19T07:10:07;13.5;73.4
78536;SHT31;67829;51.968;5.684;2023-11-19T07:12:36;13.5;73.4
78536;SHT31;67829;51.968;5.684;2023-11-19T07:15:05;13.5;73.3
78536;SHT31;67829;51.968;5.684;2023-11-19T07:17:34;13.5;73.2
78536;SHT31;67829;51.968;5.684;2023-11-19T07:20:03;13.5;73.2
78536;SHT31;67829;51.968;5.684;2023-11-19T07:22:32;13.5;73.1
78536;SHT31;67829;51.968;5.684;2023-11-19T07:25:01;13.5;73.0
78536;SHT31;67829;51.968;5.684;2023-11-19T07:27:29;13.5;73.1
78536;SHT31;67829;51.968;5.684;2023-11-19T07:29:58;13.4;73.1
78536;SHT31;67829;51.968;5.684;2023-11-19T07:32:28;13.4;73.2
78536;SHT31;67829;51.968;5.684;2023-11-19T07:34:57;13.4;73.1
78536;SHT31;67829;51.968;5.684;2023-11-19T07:37:25;13.4;73.4
78536;SHT31;67829;51.968;5.684;2023-11-19T07:39:54;13.4;73.5
78536;SHT31;67829;51.968;5.684;2023-11-19T07:42:22;13.5;73.4
78536;SHT31;67829;51.968;5.684;2023-11-19T07:44:51;13.5;73.6
78536;SHT31;67829;51.968;5.684;2023-11-19T07:47:21;13.5;73.4
78536;SHT31;67829;51.968;5.684;2023-11-19T07:49:51;13.5;73.5
78536;SHT31;67829;51.968;5.684;2023-11-19T07:52:20;13.5;73.5
78536;SHT31;67829;51.968;5.684;2023-11-19T07:54:48;13.6;73.0
78536;SHT31;67829;51.968;5.684;2023-11-19T07:57:17;13.6;73.0
78536;SHT31;67829;51.968;5.684;2023-11-19T07:59:46;13.6;72.7
78536;SHT31;67829;51.968;5.684;2023-11-19T08:02:15;13.6;72.5
78536;SHT31;67829;51.968;5.684;2023-11-19T08:04:44;13.6;72.5
78536;SHT31;67829;51.968;5.684;2023-11-19T08:07:16;13.7;72.3
78536;SHT31;67829;51.968;5.684;2023-11-19T08:09:45;13.7;72.2
78536;SHT31;67829;51.968;5.684;2023-11-19T08:12:14;13.7;72.0
78536;SHT31;67829;51.968;5.684;2023-11-19T08:14:44;13.7;72.0
78536;SHT31;67829;51.968;5.684;2023-11-19T08:17:12;13.7;71.9
78536;SHT31;67829;51.968;5.684;2023-11-19T08:19:41;13.7;72.0
78536;SHT31;67829;51.968;5.684;2023-11-19T08:22:09;13.7;72.5
78536;SHT31;67829;51.968;5.684;2023-11-19T08:24:38;13.8;72.3
78536;SHT31;67829;51.968;5.684;2023-11-19T08:27:06;13.8;72.5
78536;SHT31;67829;51.968;5.684;2023-11-19T08:29:35;13.8;72.1
78536;SHT31;67829;51.968;5.684;2023-11-19T08:32:06;13.8;72.0
78536;SHT31;67829;51.968;5.684;2023-11-19T08:34:34;13.8;71.6
78536;SHT31;67829;51.968;5.684;2023-11-19T08:37:03;13.9;71.4
78536;SHT31;67829;51.968;5.684;2023-11-19T08:39:32;13.9;71.4
78536;SHT31;67829;51.968;5.684;2023-11-19T08:42:01;13.9;71.4
78536;SHT31;67829;51.968;5.684;2023-11-19T08:44:30;13.9;71.2
78536;SHT31;67829;51.968;5.684;2023-11-19T08:46:58;13.9;71.7
78536;SHT31;67829;51.968;5.684;2023-11-19T08:49:27;13.9;71.1
78536;SHT31;67829;51.968;5.684;2023-11-19T08:51:55;14.0;71.0
78536;SHT31;67829;51.968;5.684;2023-11-19T08:54:24;14.0;71.0
78536;SHT31;67829;51.968;5.684;2023-11-19T08:56:52;14.0;70.9
78536;SHT31;67829;51.968;5.684;2023-11-19T08:59:21;14.1;71.1
78536;SHT31;67829;51.968;5.684;2023-11-19T09:01:49;14.1;70.9
78536;SHT31;67829;51.968;5.684;2023-11-19T09:04:18;14.1;70.4
78536;SHT31;67829;51.968;5.684;2023-11-19T09:06:48;14.1;70.6
78536;SHT31;67829;51.968;5.684;2023-11-19T09:09:17;14.2;70.2
78536;SHT31;67829;51.968;5.684;2023-11-19T09:11:45;14.2;69.9
78536;SHT31;67829;51.968;5.684;2023-11-19T09:14:14;14.2;70.6
78536;SHT31;67829;51.968;5.684;2023-11-19T09:16:42;14.2;70.1
78536;SHT31;67829;51.968;5.684;2023-11-19T09:19:11;14.2;70.2
78536;SHT31;67829;51.968;5.684;2023-11-19T09:21:39;14.3;70.4
78536;SHT31;67829;51.968;5.684;2023-11-19T09:24:08;14.3;70.5
78536;SHT31;67829;51.968;5.684;2023-11-19T09:26:36;14.3;69.9
78536;SHT31;67829;51.968;5.684;2023-11-19T09:29:08;14.3;70.0
78536;SHT31;67829;51.968;5.684;2023-11-19T09:31:38;14.4;69.7
78536;SHT31;67829;51.968;5.684;2023-11-19T09:34:07;14.4;69.7
78536;SHT31;67829;51.968;5.684;2023-11-19T09:36:35;14.4;69.6
78536;SHT31;67829;51.968;5.684;2023-11-19T09:39:04;14.4;69.7
78536;SHT31;67829;51.968;5.684;2023-11-19T09:41:35;14.4;69.3
78536;SHT31;67829;51.968;5.684;2023-11-19T09:44:04;14.5;69.5
78536;SHT31;67829;51.968;5.684;2023-11-19T09:46:33;14.5;69.9
78536;SHT31;67829;51.968;5.684;2023-11-19T09:49:04;14.5;70.0
78536;SHT31;67829;51.968;5.684;2023-11-19T09:51:35;14.6;69.6
78536;SHT31;67829;51.968;5.684;2023-11-19T09:54:03;14.6;69.3
78536;SHT31;67829;51.968;5.684;2023-11-19T09:56:36;14.6;68.8
78536;SHT31;67829;51.968;5.684;2023-11-19T09:59:06;14.7;68.6
78536;SHT31;67829;51.968;5.684;2023-11-19T10:01:35;14.7;68.7
78536;SHT31;67829;51.968;5.684;2023-11-19T10:04:05;14.8;68.6
78536;SHT31;67829;51.968;5.684;2023-11-19T10:06:37;14.8;67.9
78536;SHT31;67829;51.968;5.684;2023-11-19T10:09:06;14.8;67.9
78536;SHT31;67829;51.968;5.684;2023-11-19T10:11:36;14.9;67.9
78536;SHT31;67829;51.968;5.684;2023-11-19T10:14:06;14.9;67.7
78536;SHT31;67829;51.968;5.684;2023-11-19T10:16:35;14.9;67.2
78536;SHT31;67829;51.968;5.684;2023-11-19T10:19:04;14.9;66.9
78536;SHT31;67829;51.968;5.684;2023-11-19T10:21:35;14.9;67.5
78536;SHT31;67829;51.968;5.684;2023-11-19T10:24:04;15.0;67.1
78536;SHT31;67829;51.968;5.684;2023-11-19T10:26:32;15.0;67.0
78536;SHT31;67829;51.968;5.684;2023-11-19T10:29:01;15.0;67.7
78536;SHT31;67829;51.968;5.684;2023-11-19T10:31:32;15.0;67.1
78536;SHT31;67829;51.968;5.684;2023-11-19T10:34:00;15.0;66.6
78536;SHT31;67829;51.968;5.684;2023-11-19T10:36:39;15.0;67.0
78536;SHT31;67829;51.968;5.684;2023-11-19T10:39:10;15.0;66.9
78536;SHT31;67829;51.968;5.684;2023-11-19T10:41:41;15.0;67.3
78536;SHT31;67829;51.968;5.684;2023-11-19T10:44:09;15.0;66.6
78536;SHT31;67829;51.968;5.684;2023-11-19T10:46:39;15.0;66.8
78536;SHT31;67829;51.968;5.684;2023-11-19T10:49:09;15.1;66.7
78536;SHT31;67829;51.968;5.684;2023-11-19T10:51:43;15.1;66.3
78536;SHT31;67829;51.968;5.684;2023-11-19T10:54:18;15.1;65.6
78536;SHT31;67829;51.968;5.684;2023-11-19T10:56:55;15.1;65.7
78536;SHT31;67829;51.968;5.684;2023-11-19T10:59:29;15.1;65.9
78536;SHT31;67829;51.968;5.684;2023-11-19T11:02:03;15.1;66.6
78536;SHT31;67829;51.968;5.684;2023-11-19T11:04:40;15.1;66.4
78536;SHT31;67829;51.968;5.684;2023-11-19T11:07:09;15.1;65.8
78536;SHT31;67829;51.968;5.684;2023-11-19T11:09:39;15.2;65.9
78536;SHT31;67829;51.968;5.684;2023-11-19T11:12:09;15.2;66.5
78536;SHT31;67829;51.968;5.684;2023-11-19T11:14:40;15.2;65.8
78536;SHT31;67829;51.968;5.684;2023-11-19T11:17:12;15.2;65.2
78536;SHT31;67829;51.968;5.684;2023-11-19T11:19:45;15.2;64.7
78536;SHT31;67829;51.968;5.684;2023-11-19T11:22:16;15.2;64.6
78536;SHT31;67829;51.968;5.684;2023-11-19T11:25:06;15.2;65.4
78536;SHT31;67829;51.968;5.684;2023-11-19T11:28:00;15.2;65.5
78536;SHT31;67829;51.968;5.684;2023-11-19T11:30:43;15.3;66.2
78536;SHT31;67829;51.968;5.684;2023-11-19T11:33:32;15.3;65.8
78536;SHT31;67829;51.968;5.684;2023-11-19T11:36:13;15.3;66.0
78536;SHT31;67829;51.968;5.684;2023-11-19T11:38:48;15.3;65.3
78536;SHT31;67829;51.968;5.684;2023-11-19T11:41:19;15.3;65.5
78536;SHT31;67829;51.968;5.684;2023-11-19T11:43:49;15.4;65.7
78536;SHT31;67829;51.968;5.684;2023-11-19T11:46:55;15.4;66.2
78536;SHT31;67829;51.968;5.684;2023-11-19T11:49:28;15.4;66.4
78536;SHT31;67829;51.968;5.684;2023-11-19T11:52:02;15.5;65.0
78536;SHT31;67829;51.968;5.684;2023-11-19T11:54:35;15.5;65.6
78536;SHT31;67829;51.968;5.684;2023-11-19T11:57:13;15.5;65.7
78536;SHT31;67829;51.968;5.684;2023-11-19T11:59:45;15.5;64.6
78536;SHT31;67829;51.968;5.684;2023-11-19T12:02:16;15.6;64.7
78536;SHT31;67829;51.968;5.684;2023-11-19T12:04:47;15.6;64.8
78536;SHT31;67829;51.968;5.684;2023-11-19T12:07:18;15.6;63.5
78536;SHT31;67829;51.968;5.684;2023-11-19T12:09:52;15.6;63.7
78536;SHT31;67829;51.968;5.684;2023-11-19T12:12:26;15.6;63.6
78536;SHT31;67829;51.968;5.684;2023-11-19T12:15:06;15.7;63.8
78536;SHT31;67829;51.968;5.684;2023-11-19T12:17:41;15.7;63.4
78536;SHT31;67829;51.968;5.684;2023-11-19T12:20:11;15.7;62.9
78536;SHT31;67829;51.968;5.684;2023-11-19T12:22:42;15.6;63.3
78536;SHT31;67829;51.968;5.684;2023-11-19T12:25:12;15.6;64.0
78536;SHT31;67829;51.968;5.684;2023-11-19T12:27:44;15.6;63.7
78536;SHT31;67829;51.968;5.684;2023-11-19T12:30:17;15.6;64.1
78536;SHT31;67829;51.968;5.684;2023-11-19T12:32:46;15.6;64.0
78536;SHT31;67829;51.968;5.684;2023-11-19T12:35:18;15.6;64.5
78536;SHT31;67829;51.968;5.684;2023-11-19T12:37:47;15.6;64.4
78536;SHT31;67829;51.968;5.684;2023-11-19T12:40:19;15.7;63.3
78536;SHT31;67829;51.968;5.684;2023-11-19T12:42:48;15.7;63.5
78536;SHT31;67829;51.968;5.684;2023-11-19T12:45:17;15.7;63.9
78536;SHT31;67829;51.968;5.684;2023-11-19T12:47:48;15.7;63.8
78536;SHT31;67829;51.968;5.684;2023-11-19T12:50:18;15.8;62.5
78536;SHT31;67829;51.968;5.684;2023-11-19T12:52:57;15.8;63.6
78536;SHT31;67829;51.968;5.684;2023-11-19T12:55:27;15.8;62.3
78536;SHT31;67829;51.968;5.684;2023-11-19T12:57:57;15.8;62.7
78536;SHT31;67829;51.968;5.684;2023-11-19T13:00:27;15.8;63.2
78536;SHT31;67829;51.968;5.684;2023-11-19T13:02:57;15.8;62.5
78536;SHT31;67829;51.968;5.684;2023-11-19T13:05:28;15.8;62.9
78536;SHT31;67829;51.968;5.684;2023-11-19T13:08:02;15.8;63.2
78536;SHT31;67829;51.968;5.684;2023-11-19T13:10:31;15.8;63.0
78536;SHT31;67829;51.968;5.684;2023-11-19T13:13:08;15.8;63.2
78536;SHT31;67829;51.968;5.684;2023-11-19T13:15:37;15.8;62.7
78536;SHT31;67829;51.968;5.684;2023-11-19T13:18:06;15.9;63.1
78536;SHT31;67829;51.968;5.684;2023-11-19T13:20:35;15.9;63.6
78536;SHT31;67829;51.968;5.684;2023-11-19T13:23:05;15.9;63.7
78536;SHT31;67829;51.968;5.684;2023-11-19T13:25:34;15.9;63.9
78536;SHT31;67829;51.968;5.684;2023-11-19T13:28:02;15.9;63.8
78536;SHT31;67829;51.968;5.684;2023-11-19T13:30:32;15.9;64.2
78536;SHT31;67829;51.968;5.684;2023-11-19T13:33:01;15.9;63.5
78536;SHT31;67829;51.968;5.684;2023-11-19T13:35:31;15.9;63.2
78536;SHT31;67829;51.968;5.684;2023-11-19T13:38:00;15.9;63.5
78536;SHT31;67829;51.968;5.684;2023-11-19T13:40:31;15.9;63.6
78536;SHT31;67829;51.968;5.684;2023-11-19T13:42:59;15.9;63.3
78536;SHT31;67829;51.968;5.684;2023-11-19T13:45:28;15.9;64.0
78536;SHT31;67829;51.968;5.684;2023-11-19T13:47:56;15.9;63.7
78536;SHT31;67829;51.968;5.684;2023-11-19T13:50:25;15.9;63.9
78536;SHT31;67829;51.968;5.684;2023-11-19T13:52:55;15.9;64.0
78536;SHT31;67829;51.968;5.684;2023-11-19T13:55:23;15.8;63.9
78536;SHT31;67829;51.968;5.684;2023-11-19T13:57:52;15.8;64.7
78536;SHT31;67829;51.968;5.684;2023-11-19T14:00:20;15.8;65.1
78536;SHT31;67829;51.968;5.684;2023-11-19T14:02:50;15.8;65.8
78536;SHT31;67829;51.968;5.684;2023-11-19T14:05:19;15.8;65.9
78536;SHT31;67829;51.968;5.684;2023-11-19T14:07:51;15.7;66.1
78536;SHT31;67829;51.968;5.684;2023-11-19T14:10:25;15.7;66.3
78536;SHT31;67829;51.968;5.684;2023-11-19T14:12:53;15.7;66.0
78536;SHT31;67829;51.968;5.684;2023-11-19T14:15:22;15.7;66.1
78536;SHT31;67829;51.968;5.684;2023-11-19T14:17:50;15.7;66.0
78536;SHT31;67829;51.968;5.684;2023-11-19T14:20:19;15.6;65.8
78536;SHT31;67829;51.968;5.684;2023-11-19T14:22:47;15.6;65.3
78536;SHT31;67829;51.968;5.684;2023-11-19T14:25:18;15.6;65.3
78536;SHT31;67829;51.968;5.684;2023-11-19T14:27:48;15.6;65.1
78536;SHT31;67829;51.968;5.684;2023-11-19T14:30:16;15.6;65.1
78536;SHT31;67829;51.968;5.684;2023-11-19T14:32:45;15.6;65.2
78536;SHT31;67829;51.968;5.684;2023-11-19T14:35:15;15.6;64.8
78536;SHT31;67829;51.968;5.684;2023-11-19T14:37:43;15.5;64.8
78536;SHT31;67829;51.968;5.684;2023-11-19T14:40:14;15.5;64.9
78536;SHT31;67829;51.968;5.684;2023-11-19T14:42:43;15.4;64.9
78536;SHT31;67829;51.968;5.684;2023-11-19T14:45:11;15.4;64.9
78536;SHT31;67829;51.968;5.684;2023-11-19T14:47:42;15.3;65.0
78536;SHT31;67829;51.968;5.684;2023-11-19T14:50:10;15.3;65.4
78536;SHT31;67829;51.968;5.684;2023-11-19T14:52:39;15.2;65.8
78536;SHT31;67829;51.968;5.684;2023-11-19T14:55:08;15.2;66.1
78536;SHT31;67829;51.968;5.684;2023-11-19T14:57:37;15.1;66.3
78536;SHT31;67829;51.968;5.684;2023-11-19T15:00:11;15.1;66.2
78536;SHT31;67829;51.968;5.684;2023-11-19T15:02:42;15.1;66.2
78536;SHT31;67829;51.968;5.684;2023-11-19T15:05:10;15.1;66.4
78536;SHT31;67829;51.968;5.684;2023-11-19T15:07:39;15.0;66.5
78536;SHT31;67829;51.968;5.684;2023-11-19T15:10:09;15.0;66.3
78536;SHT31;67829;51.968;5.684;2023-11-19T15:12:39;15.0;66.3
78536;SHT31;67829;51.968;5.684;2023-11-19T15:15:09;15.0;66.6
78536;SHT31;67829;51.968;5.684;2023-11-19T15:17:40;15.0;66.6
78536;SHT31;67829;51.968;5.684;2023-11-19T15:20:09;15.0;66.6
78536;SHT31;67829;51.968;5.684;2023-11-19T15:22:41;15.0;66.7
78536;SHT31;67829;51.968;5.684;2023-11-19T15:25:12;15.0;66.6
78536;SHT31;67829;51.968;5.684;2023-11-19T15:27:41;15.0;66.3
78536;SHT31;67829;51.968;5.684;2023-11-19T15:30:10;15.0;66.8
78536;SHT31;67829;51.968;5.684;2023-11-19T15:32:39;15.0;66.8
78536;SHT31;67829;51.968;5.684;2023-11-19T15:35:10;15.0;66.7
78536;SHT31;67829;51.968;5.684;2023-11-19T15:37:39;15.0;66.5
78536;SHT31;67829;51.968;5.684;2023-11-19T15:40:10;15.0;66.8
78536;SHT31;67829;51.968;5.684;2023-11-19T15:42:39;15.0;66.7
78536;SHT31;67829;51.968;5.684;2023-11-19T15:45:10;15.0;66.6
78536;SHT31;67829;51.968;5.684;2023-11-19T15:47:38;15.0;66.7
78536;SHT31;67829;51.968;5.684;2023-11-19T15:50:08;15.0;66.8
78536;SHT31;67829;51.968;5.684;2023-11-19T15:52:37;15.0;66.9
78536;SHT31;67829;51.968;5.684;2023-11-19T15:55:07;15.0;67.0
78536;SHT31;67829;51.968;5.684;2023-11-19T15:57:38;15.0;67.1
78536;SHT31;67829;51.968;5.684;2023-11-19T16:00:07;15.0;67.3
78536;SHT31;67829;51.968;5.684;2023-11-19T16:02:37;15.0;67.5
78536;SHT31;67829;51.968;5.684;2023-11-19T16:05:06;14.9;67.9
78536;SHT31;67829;51.968;5.684;2023-11-19T16:07:35;14.9;68.1
78536;SHT31;67829;51.968;5.684;2023-11-19T16:10:04;14.9;68.1
78536;SHT31;67829;51.968;5.684;2023-11-19T16:12:38;14.9;68.1
78536;SHT31;67829;51.968;5.684;2023-11-19T16:15:08;14.9;68.1
78536;SHT31;67829;51.968;5.684;2023-11-19T16:17:36;14.9;68.2
78536;SHT31;67829;51.968;5.684;2023-11-19T16:20:09;14.9;68.0